createdAt,value
2022-09-12T00:02:02.198Z,4.88
2022-09-12T00:07:02.168Z,5.65
2022-09-12T00:09:32.934Z,11.77
2022-09-12T00:12:03.146Z,3.75
2022-09-12T00:14:33.595Z,5.57
2022-09-12T00:17:06.575Z,12.13
2022-09-12T00:19:36.935Z,13.85
2022-09-12T00:22:07.572Z,6.07
2022-09-12T00:24:37.952Z,6.22
2022-09-12T00:27:08.714Z,8.20
2022-09-12T00:29:39.118Z,6.40
2022-09-12T00:32:12.125Z,6.50
2022-09-12T00:34:42.172Z,11.00
2022-09-12T00:37:12.372Z,8.27
2022-09-12T00:39:42.612Z,7.35
2022-09-12T00:42:13.670Z,8.93
2022-09-12T00:44:50.808Z,11.98
2022-09-12T00:47:30.452Z,9.38
2022-09-12T00:50:07.345Z,6.60
2022-09-12T00:52:42.385Z,7.50
2022-09-12T00:55:15.906Z,13.05
2022-09-12T00:57:58.976Z,7.32
2022-09-12T01:00:31.460Z,13.98
2022-09-12T01:03:08.107Z,8.60
2022-09-12T01:05:45.071Z,13.30
2022-09-12T01:08:15.600Z,11.20
2022-09-12T01:10:46.341Z,8.38
2022-09-12T01:13:16.503Z,13.77
2022-09-12T01:15:46.952Z,7.50
2022-09-12T01:18:28.171Z,7.78
2022-09-12T01:21:08.002Z,7.45
2022-09-12T01:24:16.933Z,8.70
2022-09-12T01:27:21.747Z,9.93
2022-09-12T01:30:26.926Z,10.65
2022-09-12T01:33:13.439Z,14.65
2022-09-12T01:35:54.595Z,12.02
2022-09-12T01:38:30.666Z,13.50
2022-09-12T01:41:11.825Z,8.77
2022-09-12T01:43:51.309Z,10.75
2022-09-12T01:46:24.665Z,12.52
2022-09-12T01:49:01.146Z,13.43
2022-09-12T01:51:37.923Z,8.32
2022-09-12T01:54:12.650Z,13.13
2022-09-12T01:56:45.241Z,13.65
2022-09-12T01:59:20.904Z,14.75
2022-09-12T02:01:56.596Z,12.20
2022-09-12T02:04:34.363Z,18.98
2022-09-12T02:07:11.419Z,13.15
2022-09-12T02:09:48.557Z,10.27
2022-09-12T02:12:22.215Z,14.55
2022-09-12T02:17:27.643Z,12.65
2022-09-12T02:20:06.355Z,14.75
2022-09-12T02:22:40.389Z,14.57
2022-09-12T02:25:14.772Z,17.13
2022-09-12T02:27:49.955Z,17.27
2022-09-12T02:30:23.422Z,15.88
2022-09-12T02:33:03.807Z,14.68
2022-09-12T02:35:47.240Z,13.60
2022-09-12T02:38:28.148Z,18.48
2022-09-12T02:40:58.715Z,19.45
2022-09-12T02:43:28.894Z,13.57
2022-09-12T02:45:59.189Z,14.68
2022-09-12T02:48:33.435Z,17.15
2022-09-12T02:51:06.986Z,15.77
2022-09-12T02:56:11.325Z,14.40
2022-09-12T02:58:42.038Z,18.52
2022-09-12T03:01:21.255Z,16.73
2022-09-12T03:04:08.424Z,25.73
2022-09-12T03:06:49.237Z,19.75
2022-09-12T03:09:24.219Z,20.50
2022-09-12T03:12:14.860Z,21.15
2022-09-12T03:15:03.094Z,21.13
2022-09-12T03:17:40.938Z,25.23
2022-09-12T03:20:15.289Z,20.00
2022-09-12T03:22:56.758Z,23.08
2022-09-12T03:25:33.949Z,27.13
2022-09-12T03:28:09.523Z,22.58
2022-09-12T03:30:43.094Z,16.45
2022-09-12T03:35:45.102Z,23.13
2022-09-12T03:38:18.353Z,21.85
2022-09-12T03:40:54.113Z,22.60
2022-09-12T03:43:24.815Z,25.27
2022-09-12T03:45:55.248Z,22.63
2022-09-12T03:48:25.356Z,22.60
2022-09-12T03:50:55.416Z,24.02
2022-09-12T03:53:28.170Z,24.15
2022-09-12T03:55:58.564Z,20.93
2022-09-12T03:58:32.594Z,26.25
2022-09-12T04:01:03.082Z,22.75
2022-09-12T04:03:33.232Z,26.40
2022-09-12T04:06:03.362Z,28.27
2022-09-12T04:08:36.024Z,25.80
2022-09-12T04:11:07.123Z,27.52
2022-09-12T04:13:38.496Z,26.40
2022-09-12T04:16:09.867Z,41.72
2022-09-12T04:18:40.482Z,25.30
2022-09-12T04:21:12.292Z,27.70
2022-09-12T04:23:45.041Z,29.58
2022-09-12T04:26:17.595Z,25.75
2022-09-12T04:28:48.908Z,31.13
2022-09-12T04:31:22.833Z,23.40
2022-09-12T04:33:58.803Z,31.20
2022-09-12T04:36:30.211Z,25.65
2022-09-12T04:39:04.470Z,34.88
2022-09-12T04:41:37.191Z,33.58
2022-09-12T04:44:09.684Z,37.30
2022-09-12T04:46:43.254Z,30.50
2022-09-12T04:49:14.332Z,27.90
2022-09-12T04:51:45.678Z,31.50
2022-09-12T04:54:20.759Z,38.05
2022-09-12T04:56:52.909Z,29.60
2022-09-12T04:59:24.489Z,28.23
2022-09-12T05:01:54.621Z,22.17
2022-09-12T05:04:24.679Z,24.75
2022-09-12T05:06:54.956Z,25.70
2022-09-12T05:09:27.692Z,29.42
2022-09-12T05:12:05.614Z,29.93
2022-09-12T05:14:36.556Z,26.83
2022-09-12T05:17:07.929Z,29.02
2022-09-12T05:19:38.063Z,25.88
2022-09-12T05:22:08.188Z,27.92
2022-09-12T05:24:47.307Z,27.45
2022-09-12T05:27:20.248Z,35.80
2022-09-12T05:29:50.272Z,26.42
2022-09-12T05:32:20.880Z,29.58
2022-09-12T05:34:51.059Z,34.88
2022-09-12T05:37:21.079Z,32.63
2022-09-12T05:39:53.837Z,36.80
2022-09-12T05:42:24.151Z,31.83
2022-09-12T05:44:54.373Z,30.63
2022-09-12T05:47:24.601Z,31.52
2022-09-12T05:49:54.988Z,27.98
2022-09-12T05:52:25.072Z,35.08
2022-09-12T05:54:57.853Z,34.60
2022-09-12T05:57:27.895Z,24.20
2022-09-12T05:59:58.392Z,29.20
2022-09-12T06:02:29.031Z,24.15
2022-09-12T06:04:59.099Z,26.95
2022-09-12T06:07:29.832Z,26.17
2022-09-12T06:10:02.600Z,27.95
2022-09-12T06:12:32.952Z,26.77
2022-09-12T06:15:03.048Z,24.65
2022-09-12T06:17:33.104Z,25.45
2022-09-12T06:20:04.225Z,26.45
2022-09-12T06:22:34.549Z,22.92
2022-09-12T06:25:08.807Z,28.83
2022-09-12T06:27:39.157Z,21.02
2022-09-12T06:30:10.994Z,27.77
2022-09-12T06:32:41.275Z,23.23
2022-09-12T06:35:12.590Z,29.88
2022-09-12T06:37:42.973Z,31.33
2022-09-12T06:40:17.574Z,25.05
2022-09-12T06:42:48.804Z,28.20
2022-09-12T06:45:35.297Z,25.02
2022-09-12T06:48:06.074Z,20.05
2022-09-12T06:50:36.363Z,18.05
2022-09-12T06:53:06.663Z,19.90
2022-09-12T06:55:39.686Z,17.70
2022-09-12T06:58:10.044Z,14.35
2022-09-12T07:00:40.613Z,20.95
2022-09-12T07:03:11.426Z,14.35
2022-09-12T07:05:41.736Z,13.07
2022-09-12T07:08:12.357Z,17.13
2022-09-12T07:10:45.712Z,16.98
2022-09-12T07:13:15.856Z,23.27
2022-09-12T07:15:46.364Z,13.50
2022-09-12T07:18:16.470Z,12.52
2022-09-12T07:20:46.631Z,13.80
2022-09-12T07:23:16.940Z,12.23
2022-09-12T07:25:57.296Z,11.50
2022-09-12T07:28:27.869Z,11.15
2022-09-12T07:31:00.033Z,13.73
2022-09-12T07:33:31.396Z,13.07
2022-09-12T07:36:06.034Z,10.68
2022-09-12T07:38:36.865Z,12.27
2022-09-12T07:41:17.143Z,11.95
2022-09-12T07:43:47.686Z,12.48
2022-09-12T07:46:18.609Z,9.50
2022-09-12T07:48:52.990Z,10.25
2022-09-12T07:51:24.424Z,9.45
2022-09-12T07:53:55.032Z,10.88
2022-09-12T07:56:32.687Z,8.52
2022-09-12T07:59:04.895Z,10.05
2022-09-12T08:01:35.338Z,9.48
2022-09-12T08:04:06.092Z,9.98
2022-09-12T08:06:37.464Z,16.80
2022-09-12T08:09:08.704Z,9.13
2022-09-12T08:11:41.710Z,10.63
2022-09-12T08:14:11.945Z,9.63
2022-09-12T08:16:42.325Z,7.78
2022-09-12T08:19:12.388Z,7.22
2022-09-12T08:21:42.509Z,13.65
2022-09-12T08:24:16.040Z,7.03
2022-09-12T08:29:18.956Z,8.10
2022-09-12T08:31:51.097Z,5.25
2022-09-12T08:34:24.984Z,4.97
2022-09-12T08:36:56.226Z,11.85
2022-09-12T08:39:26.974Z,7.72
2022-09-12T08:42:05.003Z,8.02
2022-09-12T08:44:59.234Z,5.97
2022-09-12T08:47:33.697Z,9.07
2022-09-12T08:50:09.714Z,7.25
2022-09-12T08:52:46.454Z,6.43
2022-09-12T08:55:28.901Z,10.65
2022-09-12T08:58:02.733Z,4.78
2022-09-12T09:00:43.215Z,4.97
2022-09-12T09:03:47.046Z,6.18
2022-09-12T09:06:32.633Z,5.50
2022-09-12T09:09:12.157Z,3.42
2022-09-12T09:11:56.074Z,4.25
2022-09-12T09:14:49.126Z,8.45
2022-09-12T09:17:25.524Z,12.57
2022-09-12T09:20:05.296Z,5.95
2022-09-12T09:22:41.954Z,3.13
2022-09-12T09:25:23.013Z,15.18
2022-09-12T09:28:01.133Z,3.92
2022-09-12T09:30:35.983Z,2.63
2022-09-12T09:33:08.157Z,12.25
2022-09-12T09:35:46.580Z,3.97
2022-09-12T09:38:26.433Z,5.47
2022-09-12T09:41:10.311Z,3.78
2022-09-12T09:43:41.887Z,3.20
2022-09-12T09:46:15.193Z,7.15
2022-09-12T09:51:21.553Z,4.60
2022-09-12T09:53:55.777Z,16.48
2022-09-12T09:56:32.973Z,8.63
2022-09-12T09:59:13.343Z,2.45
2022-09-12T10:01:58.281Z,3.72
2022-09-12T10:04:30.896Z,5.03
2022-09-12T10:07:03.233Z,2.00
2022-09-12T10:09:36.291Z,3.88
2022-09-12T10:12:23.793Z,2.17
2022-09-12T10:15:01.463Z,5.18
2022-09-12T10:17:42.700Z,6.20
2022-09-12T10:20:32.692Z,4.85
2022-09-12T10:23:05.230Z,3.42
2022-09-12T10:25:36.403Z,2.20
2022-09-12T10:28:06.632Z,3.58
2022-09-12T10:30:37.306Z,10.95
2022-09-12T10:33:15.357Z,3.78
2022-09-12T10:35:48.835Z,2.90
2022-09-12T10:38:24.974Z,5.18
2022-09-12T10:41:02.227Z,5.85
2022-09-12T10:43:40.707Z,1.85
2022-09-12T10:46:27.125Z,4.53
2022-09-12T10:49:25.294Z,3.28
2022-09-12T10:51:56.886Z,5.25
2022-09-12T10:54:30.187Z,4.47
2022-09-12T11:00:17.257Z,3.45
2022-09-12T11:02:55.540Z,5.28
2022-09-12T11:05:44.841Z,2.70
2022-09-12T11:08:38.947Z,1.92
2022-09-12T11:11:19.280Z,4.03
2022-09-12T11:14:04.412Z,3.58
2022-09-12T11:16:43.332Z,5.90
2022-09-12T11:19:29.820Z,5.22
2022-09-12T11:22:32.240Z,4.30
2022-09-12T11:25:15.423Z,3.90
2022-09-12T11:27:58.273Z,2.60
2022-09-12T11:30:28.863Z,3.55
2022-09-12T11:33:16.647Z,9.40
2022-09-12T11:35:55.278Z,14.80
2022-09-12T11:38:46.297Z,2.55
2022-09-12T11:41:22.273Z,4.40
2022-09-12T11:43:57.705Z,5.35
2022-09-12T11:46:34.701Z,4.75
2022-09-12T11:49:12.103Z,6.95
2022-09-12T11:51:48.076Z,10.68
2022-09-12T11:54:28.133Z,3.58
2022-09-12T11:57:08.567Z,3.90
2022-09-12T11:59:47.414Z,6.40
2022-09-12T12:02:25.242Z,10.30
2022-09-12T12:05:22.109Z,4.75
2022-09-12T12:07:56.973Z,6.60
2022-09-12T12:10:37.031Z,5.97
2022-09-12T12:13:14.098Z,8.82
2022-09-12T12:15:50.765Z,5.88
2022-09-12T12:18:23.307Z,2.97
2022-09-12T12:20:54.155Z,4.43
2022-09-12T12:23:30.227Z,8.93
2022-09-12T12:26:05.428Z,4.20
2022-09-12T12:29:01.149Z,8.73
2022-09-12T12:31:31.307Z,4.53
2022-09-12T12:34:25.153Z,10.48
2022-09-12T12:36:55.333Z,2.95
2022-09-12T12:40:01.438Z,4.45
2022-09-12T12:43:06.307Z,10.20
2022-09-12T12:46:09.193Z,7.80
2022-09-12T12:49:13.465Z,4.68
2022-09-12T12:54:55.916Z,21.40
2022-09-12T12:57:42.723Z,13.85
2022-09-12T13:00:33.455Z,5.75
2022-09-12T13:03:12.396Z,7.68
2022-09-12T13:05:44.722Z,12.50
2022-09-12T13:08:32.067Z,4.65
2022-09-12T13:11:05.702Z,5.28
2022-09-12T13:13:41.213Z,4.32
2022-09-12T13:16:31.812Z,4.57
2022-09-12T13:19:06.841Z,5.18
2022-09-12T13:21:38.458Z,3.80
2022-09-12T13:24:17.294Z,3.42
2022-09-12T13:26:50.543Z,11.20
2022-09-12T13:29:22.312Z,4.60
2022-09-12T13:31:59.249Z,6.25
2022-09-12T13:34:33.629Z,2.90
2022-09-12T13:37:30.599Z,6.75
2022-09-12T13:40:13.871Z,6.60
2022-09-12T13:42:45.491Z,5.45
2022-09-12T13:45:23.294Z,11.13
2022-09-12T13:47:59.847Z,9.43
2022-09-12T13:50:33.807Z,3.75
2022-09-12T13:53:07.517Z,5.18
2022-09-12T13:55:40.017Z,5.22
2022-09-12T13:58:20.421Z,4.85
2022-09-12T14:01:02.962Z,7.95
2022-09-12T14:03:50.394Z,2.63
2022-09-12T14:06:21.213Z,5.00
2022-09-12T14:08:51.722Z,2.40
2022-09-12T14:11:28.693Z,3.28
2022-09-12T14:13:58.873Z,3.75
2022-09-12T14:16:30.129Z,9.27
2022-09-12T14:19:03.003Z,5.03
2022-09-12T14:21:39.328Z,4.80
2022-09-12T14:24:13.332Z,3.00
2022-09-12T14:26:45.631Z,2.88
2022-09-12T14:29:19.111Z,7.63
2022-09-12T14:31:49.751Z,2.17
2022-09-12T14:34:22.915Z,6.18
2022-09-12T14:36:56.376Z,3.42
2022-09-12T14:42:09.568Z,3.08
2022-09-12T14:44:40.425Z,3.78
2022-09-12T14:47:22.640Z,22.45
2022-09-12T14:49:55.654Z,7.82
2022-09-12T14:52:29.780Z,3.70
2022-09-12T14:55:01.991Z,4.82
2022-09-12T14:57:39.017Z,6.72
2022-09-12T15:00:22.780Z,9.60
2022-09-12T15:02:53.880Z,15.55
2022-09-12T15:05:31.209Z,12.07
2022-09-12T15:08:06.317Z,3.92
2022-09-12T15:10:40.574Z,4.97
2022-09-12T15:13:26.029Z,3.13
2022-09-12T15:15:58.166Z,2.97
2022-09-12T15:18:30.235Z,3.85
2022-09-12T15:21:07.877Z,3.83
2022-09-12T15:23:40.691Z,14.63
2022-09-12T15:26:13.398Z,5.35
2022-09-12T15:28:43.920Z,4.25
2022-09-12T15:31:18.894Z,5.72
2022-09-12T15:33:49.117Z,2.97
2022-09-12T15:36:24.412Z,13.70
2022-09-12T15:38:55.748Z,6.15
2022-09-12T15:41:30.329Z,6.93
2022-09-12T15:44:01.804Z,12.15
2022-09-12T15:46:33.595Z,6.30
2022-09-12T15:49:04.150Z,4.03
2022-09-12T15:51:37.454Z,6.80
2022-09-12T15:54:08.079Z,6.03
2022-09-12T15:56:38.438Z,11.93
2022-09-12T15:59:08.709Z,13.50
2022-09-12T16:01:38.917Z,2.75
2022-09-12T16:04:24.135Z,11.38
2022-09-12T16:06:58.013Z,3.95
2022-09-12T16:09:28.279Z,5.10
2022-09-12T16:11:58.603Z,3.80
2022-09-12T16:14:29.124Z,6.85
2022-09-12T16:16:59.499Z,8.75
2022-09-12T16:19:29.712Z,2.75
2022-09-12T16:22:03.031Z,6.25
2022-09-12T16:24:33.565Z,10.55
2022-09-12T16:27:04.170Z,5.82
2022-09-12T16:29:34.655Z,8.25
2022-09-12T16:32:05.547Z,4.97
2022-09-12T16:34:35.665Z,8.27
2022-09-12T16:37:08.779Z,3.15
2022-09-12T16:39:39.424Z,5.80
2022-09-12T16:42:10.635Z,4.03
2022-09-12T16:44:41.160Z,4.82
2022-09-12T16:47:11.483Z,5.22
2022-09-12T16:49:41.678Z,9.35
2022-09-12T16:52:17.047Z,6.22
2022-09-12T16:54:47.874Z,12.52
2022-09-12T16:57:21.167Z,13.57
2022-09-12T16:59:51.731Z,15.85
2022-09-12T17:02:22.369Z,34.42
2022-09-12T17:04:53.161Z,7.95
2022-09-12T17:07:29.662Z,8.23
2022-09-12T17:10:00.485Z,10.18
2022-09-12T17:12:33.292Z,25.95
2022-09-12T17:15:04.106Z,18.13
2022-09-12T17:17:34.412Z,14.23
2022-09-12T17:20:05.219Z,18.77
2022-09-12T17:22:38.398Z,17.67
2022-09-12T17:25:09.941Z,12.27
2022-09-12T17:27:40.415Z,13.07
2022-09-12T17:30:12.568Z,17.20
2022-09-12T17:32:44.219Z,5.60
2022-09-12T17:35:14.293Z,9.20
2022-09-12T17:37:47.230Z,6.70
2022-09-12T17:40:17.922Z,4.95
2022-09-12T17:42:48.556Z,9.55
2022-09-12T17:45:19.798Z,4.40
2022-09-12T17:47:50.083Z,8.55
2022-09-12T17:50:31.581Z,4.72
2022-09-12T17:53:05.435Z,5.57
2022-09-12T17:55:38.175Z,10.43
2022-09-12T17:58:08.890Z,4.83
2022-09-12T18:00:52.956Z,2.85
2022-09-12T18:03:26.120Z,9.80
2022-09-12T18:05:58.513Z,8.38
2022-09-12T18:08:31.778Z,8.40
2022-09-12T18:11:07.656Z,2.78
2022-09-12T18:13:38.830Z,9.73
2022-09-12T18:16:12.254Z,5.95
2022-09-12T18:21:15.426Z,8.10
2022-09-12T18:23:48.579Z,5.90
2022-09-12T18:26:19.040Z,5.30
2022-09-12T18:28:49.546Z,5.45
2022-09-12T18:31:22.049Z,6.55
2022-09-12T18:33:56.510Z,13.88
2022-09-12T18:36:27.187Z,27.27
2022-09-12T18:39:01.369Z,8.57
2022-09-12T18:41:32.658Z,4.55
2022-09-12T18:44:04.978Z,4.90
2022-09-12T18:46:37.292Z,11.25
2022-09-12T18:49:08.052Z,10.30
2022-09-12T18:51:41.950Z,12.82
2022-09-12T18:54:18.105Z,3.65
2022-09-12T18:56:48.347Z,19.08
2022-09-12T18:59:18.627Z,6.63
2022-09-12T19:01:50.690Z,12.90
2022-09-12T19:04:21.190Z,6.35
2022-09-12T19:06:51.806Z,6.03
2022-09-12T19:09:25.221Z,11.68
2022-09-12T19:11:55.411Z,10.48
2022-09-12T19:14:27.674Z,9.25
2022-09-12T19:16:58.119Z,11.52
2022-09-12T19:19:28.565Z,7.38
2022-09-12T19:21:58.922Z,5.60
2022-09-12T19:24:32.272Z,3.88
2022-09-12T19:27:02.512Z,3.55
2022-09-12T19:29:32.814Z,5.07
2022-09-12T19:32:02.890Z,3.53
2022-09-12T19:34:33.222Z,6.47
2022-09-12T19:37:03.378Z,6.70
2022-09-12T19:39:39.579Z,7.50
2022-09-12T19:42:09.994Z,3.95
2022-09-12T19:44:40.131Z,4.97
2022-09-12T19:47:11.377Z,4.93
2022-09-12T19:49:41.761Z,6.38
2022-09-12T19:52:16.843Z,9.60
2022-09-12T19:54:50.345Z,6.80
2022-09-12T19:57:20.960Z,4.15
2022-09-12T19:59:51.306Z,3.97
2022-09-12T20:02:21.580Z,6.70
2022-09-12T20:04:51.869Z,7.60
2022-09-12T20:07:22.198Z,3.35
2022-09-12T20:09:55.414Z,3.08
2022-09-12T20:12:25.514Z,13.05
2022-09-12T20:14:55.824Z,9.15
2022-09-12T20:17:26.048Z,4.15
2022-09-12T20:19:56.295Z,3.95
2022-09-12T20:22:26.788Z,9.27
2022-09-12T20:24:59.926Z,5.25
2022-09-12T20:27:30.441Z,4.78
2022-09-12T20:30:00.599Z,4.70
2022-09-12T20:32:31.003Z,8.32
2022-09-12T20:35:01.317Z,7.47
2022-09-12T20:37:33.130Z,14.90
2022-09-12T20:40:06.532Z,13.95
2022-09-12T20:42:36.779Z,10.93
2022-09-12T20:45:08.454Z,8.07
2022-09-12T20:47:39.028Z,18.20
2022-09-12T20:50:10.016Z,11.13
2022-09-12T20:52:40.042Z,10.98
2022-09-12T20:55:13.985Z,10.80
2022-09-12T20:57:44.088Z,10.02
2022-09-12T21:00:15.514Z,8.82
2022-09-12T21:02:45.729Z,7.60
2022-09-12T21:05:16.216Z,6.82
2022-09-12T21:07:46.417Z,3.97
2022-09-12T21:10:19.661Z,2.97
2022-09-12T21:12:49.903Z,6.57
2022-09-12T21:15:20.477Z,7.32
2022-09-12T21:17:50.592Z,16.52
2022-09-12T21:20:20.839Z,5.03
2022-09-12T21:22:51.186Z,4.10
2022-09-12T21:25:24.192Z,10.52
2022-09-12T21:27:54.272Z,10.15
2022-09-12T21:30:24.567Z,6.93
2022-09-12T21:32:54.856Z,8.55
2022-09-12T21:35:25.080Z,3.75
2022-09-12T21:37:55.799Z,3.40
2022-09-12T21:40:29.133Z,7.22
2022-09-12T21:42:59.323Z,4.80
2022-09-12T21:45:29.981Z,7.05
2022-09-12T21:48:00.726Z,6.38
2022-09-12T21:50:31.045Z,4.03
2022-09-12T21:53:01.267Z,6.55
2022-09-12T21:55:34.506Z,5.78
2022-09-12T21:58:05.208Z,2.45
2022-09-12T22:00:35.820Z,8.05
2022-09-12T22:03:06.591Z,5.45
2022-09-12T22:05:37.744Z,7.55
2022-09-12T22:08:08.013Z,7.72
2022-09-12T22:10:41.655Z,5.50
2022-09-12T22:15:41.868Z,2.55
2022-09-12T22:18:12.329Z,3.97
2022-09-12T22:20:42.776Z,3.45
2022-09-12T22:23:27.489Z,5.32
2022-09-12T22:26:01.439Z,6.53
2022-09-12T22:28:32.895Z,6.15
2022-09-12T22:31:03.922Z,6.13
2022-09-12T22:33:34.276Z,2.65
2022-09-12T22:36:04.643Z,5.32
2022-09-12T22:38:35.057Z,4.30
2022-09-12T22:41:15.299Z,4.82
2022-09-12T22:43:45.447Z,11.77
2022-09-12T22:46:15.954Z,5.57
2022-09-12T22:48:48.761Z,2.78
2022-09-12T22:51:19.335Z,5.97
2022-09-12T22:53:49.445Z,8.27
2022-09-12T22:56:22.721Z,3.13
2022-09-12T22:58:53.004Z,4.18
2022-09-12T23:01:24.125Z,3.17
2022-09-12T23:03:54.215Z,2.30
2022-09-12T23:06:24.452Z,5.40
2022-09-12T23:08:56.268Z,3.08
2022-09-12T23:11:29.114Z,10.05
2022-09-12T23:13:59.583Z,5.83
2022-09-12T23:16:32.243Z,6.22
2022-09-12T23:19:02.815Z,2.60
2022-09-12T23:21:33.132Z,3.70
2022-09-12T23:24:03.446Z,3.38
2022-09-12T23:26:36.400Z,5.93
2022-09-12T23:29:07.665Z,5.80
2022-09-12T23:31:38.715Z,5.22
2022-09-12T23:34:09.396Z,4.82
2022-09-12T23:36:39.620Z,10.32
2022-09-12T23:39:09.840Z,3.78
2022-09-12T23:41:43.329Z,7.75
2022-09-12T23:44:13.575Z,3.53
2022-09-12T23:46:43.873Z,3.58
2022-09-12T23:49:14.097Z,11.02
2022-09-12T23:51:44.920Z,9.05
2022-09-12T23:54:15.003Z,3.53
2022-09-12T23:56:48.246Z,6.85
2022-09-12T23:59:18.475Z,6.72
